• Join FlightAware (Why Join?)
  • Login
  • US Flag 
05:18PM EDT


 

Airport Tracker/Info


-or-


 

Live Flight TrackerFlight Track Log ✈ GJS6241 ✈ 21-Apr-2013 ✈ KLGA - KCHO

Flight Track Log - Related Links

Times and Time Zones

All times are in EDT time to prevent confusion due to time zone crossing. See the GJS6241 flight status page for this flight to view local times or setup timezone preferences in your user account.

Time Position Orientation Groundspeed Altitude Reporting Facility
EDT Latitude Longitude Course Direction KTS MPH feet Rate Location/Type
07:44PM 40.7500 -73.8000 239° Southwest 190 219 3,100  Level New York TRACON
07:45PM 40.8000 -73.7500 37° Northeast 222 255 5,000 1,800 Climbing New York TRACON
07:46PM 40.8333 -73.8000 311° West 265 305 6,700 2,700 Climbing New York TRACON
07:47PM 40.8333 -73.9000 270° West 278 320 10,400 3,060 Climbing New York TRACON
07:48PM 40.8333 -74.0167 270° West 300 345 12,900 2,280 Climbing New York TRACON
07:49PM 40.8000 -74.1167 246° West 321 369 15,000 1,020 Climbing New York TRACON
07:50PM 40.4725 -74.5039 239° Southwest  Level FlightAware Approximate
07:50PM 40.7500 -74.2333 241° Southwest 363 418 15,000  Level New York TRACON
07:52PM 40.6611 -74.4286 239° Southwest 367 422 17,300 1,500 Climbing New York Center
07:53PM 40.6050 -74.5569 240° Southwest 373 429 19,400 2,280 Climbing New York Center
07:54PM 40.5533 -74.6714 239° Southwest 373 429 21,900 2,460 Climbing New York Center
07:55PM 40.5036 -74.7861 240° Southwest 368 423 24,400 2,340 Climbing New York Center
07:56PM 40.4539 -74.9031 241° Southwest 368 423 26,600 1,980 Climbing New York Center
07:57PM 40.3981 -75.0061 235° Southwest 368 423 28,500 1,680 Climbing New York Center
07:58PM 40.3278 -75.1025 226° Southwest 368 423 30,000 1,320 Climbing New York Center
07:59PM 40.2758 -75.2136 239° Southwest 368 423 31,200 960 Climbing New York Center
08:00PM 40.2456 -75.3475 254° West 365 420 32,000 360 Climbing New York Center
08:01PM 40.2056 -75.4672 246° West 371 427 32,000  Level New York Center
08:02PM 40.1611 -75.5836 243° Southwest 366 421 32,000  Level New York Center
08:03PM 40.1069 -75.6858 235° Southwest 356 410 32,000  Level New York Center
08:04PM 40.0467 -75.7819 231° Southwest 356 410 32,000  Level New York Center
08:05PM 39.9722 -75.8661 221° Southwest 356 410 32,000 -480 Level New York Center
08:06PM 39.8936 -75.9469 218° Southwest 356 410 31,100 -1,200 Descending New York Center
08:07PM 39.8150 -76.0275 218° Southwest 366 421 29,600 -1,680 Descending New York Center
08:08PM 39.7406 -76.1083 220° Southwest 371 427 27,700 -1,980 Descending New York Center
08:09PM 39.6642 -76.1836 217° Southwest 366 421 25,800 -1,860 Descending New York Center
08:10PM 39.5942 -76.2508 217° Southwest 361 415 24,100 -1,500 Descending New York Center
08:12PM 39.4797 -76.3711 219° Southwest 330 380 22,000 -840 Descending Washington Center
08:13PM 39.4250 -76.4514 229° Southwest 309 356 22,000  Level Washington Center
08:14PM 39.3639 -76.5444 230° Southwest 301 346 22,000  Level Washington Center
08:14PM 39.3333 -76.6000 235° Southwest 311 358 22,000  Level Potomac TRACON
08:15PM 39.2833 -76.6833 232° Southwest 313 360 22,000  Level Potomac TRACON
08:16PM 39.2167 -76.7833 229° Southwest 314 361 22,000  Level Potomac TRACON
08:17PM 39.1667 -76.8667 232° Southwest 310 357 22,000  Level Potomac TRACON
08:18PM 39.1000 -76.9500 224° Southwest 309 356 22,000  Level Potomac TRACON
08:19PM 39.0500 -77.0333 232° Southwest 310 357 22,000  Level Potomac TRACON
08:20PM 38.9833 -77.1000 218° Southwest 319 367 22,000  Level Potomac TRACON
08:21PM 38.9167 -77.1667 218° Southwest 336 387 22,000 -120 Level Potomac TRACON
08:22PM 38.8500 -77.2500 224° Southwest 316 364 21,800 -720 Descending Potomac TRACON
08:23PM 38.8000 -77.3167 226° Southwest 298 343 20,500 -1,380 Descending Potomac TRACON
08:24PM 38.7333 -77.3833 218° Southwest 294 338 19,200 -1,200 Descending Potomac TRACON
08:25PM 38.6667 -77.4500 218° Southwest 287 330 18,200 -1,200 Descending Potomac TRACON
08:26PM 38.6167 -77.5167 226° Southwest 282 325 16,800 -1,440 Descending Potomac TRACON
08:27PM 38.5850 -77.5411 211° Southwest 282 325 16,300 -1,380 Descending Washington Center
08:28PM 38.5256 -77.6058 220° Southwest 282 325 14,800 -1,560 Descending Washington Center
08:29PM 38.4658 -77.6706 220° Southwest 282 325 13,200 -1,380 Descending Washington Center
08:30PM 38.4064 -77.7353 220° Southwest 282 325 12,100 -600 Descending Washington Center
08:31PM 38.3469 -77.7997 220° Southwest 282 325 12,100 -60 Level Washington Center
08:32PM 38.2894 -77.8642 221° Southwest 287 330 12,000 -300 Descending Washington Center
08:33PM 38.2278 -77.9283 219° Southwest 287 330 11,600 -840 Descending Washington Center
08:34PM 38.1681 -77.9925 220° Southwest 292 336 10,400 -1,320 Descending Washington Center
08:35PM 38.1125 -78.0514 220° Southwest 287 330 9,000 -1,560 Descending Washington Center
08:36PM 38.0858 -78.1403 249° West 263 303 7,300 -1,800 Descending Washington Center
08:37PM 38.0653 -78.2239 253° West 255 293 5,400 -1,800 Descending Washington Center
08:38PM 38.0467 -78.3025 253° West 255 293 3,700 -1,200 Descending Washington Center
08:39PM 38.0258 -78.3914 253° West 250 288 3,000 -360 Descending Washington Center
08:40PM 38.0122 -78.4381 250° West 219 252 3,000 -120 Level Washington Center
08:41PM 38.0400 -78.4972 301° West 153 176 2,800 -600 Descending Washington Center
08:42PM 38.0778 -78.4856 14° North 142 163 1,900 -660 Descending Washington Center
08:44PM 38.1667 -78.4333 25° Northeast 121 139 600 -600 Descending Potomac TRACON
08:46PM 38.1333 -78.4500 201° Southwest  Level FlightAware Approximate
08:53PM 38.1386 -78.4529 201° Southwest  Level Estimated
08:54PM 38.1333 -78.4500 201° Southwest  Level FlightAware Approximate
08:55PM 38.1386 -78.4529 201° Southwest  Level Estimated
08:56PM 38.1333 -78.4500 201° Southwest  Level FlightAware Approximate
08:57PM 38.1386 -78.4529 201° Southwest  Level Estimated
08:58PM 38.1333 -78.4500 201° Southwest  Level FlightAware Approximate
08:59PM 38.1386 -78.4529 201° Southwest  Level Estimated
09:00PM 38.1333 -78.4500 201° Southwest  Level FlightAware Approximate
09:01PM 38.1386 -78.4529 201° Southwest  Level Estimated